createdAt,value
2023-09-17T00:01:43.384Z,74.30
2023-09-17T00:04:11.129Z,74.35
2023-09-17T00:06:39.280Z,74.25
2023-09-17T00:09:06.958Z,74.17
2023-09-17T00:11:34.955Z,74.10
2023-09-17T00:14:02.919Z,74.09
2023-09-17T00:16:33.075Z,74.04
2023-09-17T00:19:01.315Z,73.98
2023-09-17T00:21:28.829Z,73.90
2023-09-17T00:23:56.403Z,73.84
2023-09-17T00:26:23.908Z,73.86
2023-09-17T00:28:52.069Z,73.67
2023-09-17T00:31:19.769Z,73.74
2023-09-17T00:33:47.648Z,73.79
2023-09-17T00:36:15.490Z,73.76
2023-09-17T00:38:43.155Z,73.81
2023-09-17T00:41:10.706Z,73.90
2023-09-17T00:43:38.259Z,73.95
2023-09-17T00:46:06.285Z,73.95
2023-09-17T00:48:34.942Z,73.87
2023-09-17T00:51:03.757Z,73.88
2023-09-17T00:53:32.082Z,74.03
2023-09-17T00:55:59.882Z,74.03
2023-09-17T00:58:29.940Z,74.08
2023-09-17T01:00:57.805Z,74.13
2023-09-17T01:03:27.378Z,74.16
2023-09-17T01:05:55.483Z,74.16
2023-09-17T01:08:24.431Z,74.17
2023-09-17T01:10:55.118Z,74.23
2023-09-17T01:13:22.889Z,74.28
2023-09-17T01:15:52.463Z,74.35
2023-09-17T01:18:23.456Z,74.38
2023-09-17T01:21:13.737Z,74.32
2023-09-17T01:24:16.845Z,74.31
2023-09-17T01:26:45.129Z,74.34
2023-09-17T01:29:14.880Z,74.30
2023-09-17T01:31:42.511Z,74.42
2023-09-17T01:34:10.083Z,74.41
2023-09-17T01:36:38.120Z,74.45
2023-09-17T01:39:09.504Z,74.41
2023-09-17T01:41:37.569Z,74.29
2023-09-17T01:44:06.650Z,74.29
2023-09-17T01:46:34.685Z,74.36
2023-09-17T01:49:03.160Z,74.39
2023-09-17T01:51:34.226Z,74.31
2023-09-17T01:54:02.112Z,74.28
2023-09-17T01:56:29.782Z,74.36
2023-09-17T01:58:57.550Z,74.35
2023-09-17T02:01:25.138Z,74.42
2023-09-17T02:03:53.073Z,74.44
2023-09-17T02:06:20.962Z,74.41
2023-09-17T02:08:48.769Z,74.42
2023-09-17T02:11:17.282Z,74.45
2023-09-17T02:13:45.571Z,74.44
2023-09-17T02:16:13.233Z,74.39
2023-09-17T02:18:40.879Z,74.39
2023-09-17T02:21:09.469Z,74.16
2023-09-17T02:23:37.037Z,74.14
2023-09-17T02:26:06.444Z,74.21
2023-09-17T02:28:36.759Z,74.15
2023-09-17T02:31:04.603Z,74.14
2023-09-17T02:33:32.461Z,74.03
2023-09-17T02:36:00.130Z,73.97
2023-09-17T02:38:27.831Z,73.81
2023-09-17T02:40:55.450Z,73.73
2023-09-17T02:43:24.127Z,73.65
2023-09-17T02:45:55.344Z,73.52
2023-09-17T02:48:23.002Z,73.48
2023-09-17T02:50:50.621Z,73.54
2023-09-17T02:53:21.167Z,73.45
2023-09-17T02:55:49.233Z,73.44
2023-09-17T02:58:17.134Z,73.35
2023-09-17T03:00:46.194Z,73.33
2023-09-17T03:03:14.649Z,73.28
2023-09-17T03:05:45.523Z,73.12
2023-09-17T03:08:13.418Z,72.99
2023-09-17T03:10:44.317Z,73.04
2023-09-17T03:13:16.181Z,72.93
2023-09-17T03:15:45.695Z,72.86
2023-09-17T03:18:14.441Z,72.86
2023-09-17T03:20:44.024Z,72.82
2023-09-17T03:23:12.836Z,72.86
2023-09-17T03:25:41.433Z,72.78
2023-09-17T03:28:09.177Z,72.79
2023-09-17T03:30:38.031Z,72.77
2023-09-17T03:33:07.365Z,72.76
2023-09-17T03:35:43.540Z,72.69
2023-09-17T03:38:11.717Z,72.79
2023-09-17T03:40:39.691Z,72.76
2023-09-17T03:43:07.931Z,72.86
2023-09-17T03:45:36.097Z,72.88
2023-09-17T03:48:06.597Z,72.81
2023-09-17T03:50:34.609Z,72.81
2023-09-17T03:53:03.571Z,72.81
2023-09-17T03:55:31.135Z,72.76
2023-09-17T03:57:59.051Z,72.77
2023-09-17T04:00:29.006Z,72.75
2023-09-17T04:02:56.649Z,72.85
2023-09-17T04:05:25.579Z,72.90
2023-09-17T04:07:53.091Z,72.90
2023-09-17T04:10:20.998Z,72.83
2023-09-17T04:12:48.600Z,72.87
2023-09-17T04:15:23.460Z,72.89
2023-09-17T04:17:52.556Z,72.87
2023-09-17T04:20:20.839Z,72.88
2023-09-17T04:22:50.746Z,72.93
2023-09-17T04:25:21.642Z,73.06
2023-09-17T04:27:53.030Z,72.96
2023-09-17T04:30:22.374Z,72.95
2023-09-17T04:32:51.655Z,72.93
2023-09-17T04:35:20.049Z,72.96
2023-09-17T04:37:49.402Z,72.89
2023-09-17T04:40:19.827Z,72.84
2023-09-17T04:42:48.622Z,72.85
2023-09-17T04:45:37.807Z,72.78
2023-09-17T04:48:34.502Z,72.66
2023-09-17T04:51:02.037Z,72.65
2023-09-17T04:53:29.605Z,72.73
2023-09-17T04:55:57.352Z,72.74
2023-09-17T04:58:30.608Z,72.72
2023-09-17T05:00:59.022Z,72.63
2023-09-17T05:03:26.751Z,72.50
2023-09-17T05:05:54.507Z,72.44
2023-09-17T05:08:23.641Z,72.49
2023-09-17T05:10:51.908Z,72.41
2023-09-17T05:13:20.595Z,72.26
2023-09-17T05:15:48.712Z,72.21
2023-09-17T05:18:16.751Z,72.07
2023-09-17T05:20:50.275Z,71.86
2023-09-17T05:23:19.149Z,71.73
2023-09-17T05:25:49.095Z,71.50
2023-09-17T05:28:18.042Z,71.20
2023-09-17T05:30:46.120Z,71.19
2023-09-17T05:33:13.775Z,70.99
2023-09-17T05:35:41.471Z,70.71
2023-09-17T05:38:10.227Z,70.59
2023-09-17T05:40:38.117Z,70.47
2023-09-17T05:43:06.100Z,70.27
2023-09-17T05:45:34.637Z,70.02
2023-09-17T05:48:03.030Z,69.68
2023-09-17T05:50:30.956Z,69.51
2023-09-17T05:52:58.620Z,69.26
2023-09-17T05:55:26.651Z,68.92
2023-09-17T05:57:55.837Z,68.61
2023-09-17T06:00:23.773Z,68.37
2023-09-17T06:02:51.748Z,68.12
2023-09-17T06:05:19.464Z,67.94
2023-09-17T06:07:47.259Z,67.24
2023-09-17T06:10:17.923Z,66.41
2023-09-17T06:12:45.544Z,66.03
2023-09-17T06:15:13.147Z,66.25
2023-09-17T06:17:42.169Z,66.36
2023-09-17T06:20:09.823Z,65.12
2023-09-17T06:22:38.233Z,62.20
2023-09-17T06:25:06.073Z,57.23
2023-09-17T06:27:34.579Z,52.76
2023-09-17T06:30:03.397Z,48.62
2023-09-17T06:32:31.696Z,45.03
2023-09-17T06:34:59.338Z,40.82
2023-09-17T06:37:28.036Z,37.51
2023-09-17T06:39:55.771Z,35.08
2023-09-17T06:42:23.472Z,32.91
2023-09-17T06:44:51.682Z,31.25
2023-09-17T06:47:19.325Z,29.60
2023-09-17T06:49:47.020Z,28.34
2023-09-17T06:52:15.029Z,27.16
2023-09-17T06:54:42.699Z,25.90
2023-09-17T06:57:11.204Z,25.02
2023-09-17T06:59:38.815Z,24.16
2023-09-17T07:02:06.848Z,23.20
2023-09-17T07:04:34.698Z,22.69
2023-09-17T07:07:02.945Z,22.26
2023-09-17T07:09:30.486Z,21.88
2023-09-17T07:11:58.071Z,21.58
2023-09-17T07:14:25.709Z,21.22
2023-09-17T07:16:53.332Z,20.90
2023-09-17T07:19:21.118Z,20.48
2023-09-17T07:21:48.841Z,20.74
2023-09-17T07:24:16.894Z,21.71
2023-09-17T07:26:45.099Z,23.44
2023-09-17T07:29:12.686Z,25.12
2023-09-17T07:31:42.302Z,27.05
2023-09-17T07:34:09.862Z,28.63
2023-09-17T07:36:37.476Z,30.11
2023-09-17T07:39:05.290Z,31.72
2023-09-17T07:41:32.931Z,32.96
2023-09-17T07:44:00.600Z,34.03
2023-09-17T07:46:28.541Z,35.18
2023-09-17T07:48:56.181Z,36.27
2023-09-17T07:51:23.732Z,36.97
2023-09-17T07:53:51.450Z,37.51
2023-09-17T07:56:19.482Z,37.99
2023-09-17T07:58:48.573Z,38.39
2023-09-17T08:01:16.440Z,38.89
2023-09-17T08:03:44.099Z,39.14
2023-09-17T08:06:12.909Z,39.32
2023-09-17T08:08:40.554Z,40.42
2023-09-17T08:11:08.448Z,40.22
2023-09-17T08:13:36.048Z,40.16
2023-09-17T08:16:03.894Z,40.12
2023-09-17T08:18:32.374Z,40.67
2023-09-17T08:20:59.947Z,40.92
2023-09-17T08:23:27.610Z,41.12
2023-09-17T08:25:55.548Z,41.70
2023-09-17T08:28:24.280Z,41.65
2023-09-17T08:30:52.056Z,41.31
2023-09-17T08:33:19.625Z,41.29
2023-09-17T08:35:47.140Z,41.16
2023-09-17T08:38:14.777Z,41.14
2023-09-17T08:40:42.513Z,41.19
2023-09-17T08:43:10.418Z,41.01
2023-09-17T08:45:38.036Z,41.00
2023-09-17T08:48:06.099Z,40.82
2023-09-17T08:50:33.758Z,40.45
2023-09-17T08:53:03.119Z,40.47
2023-09-17T08:55:32.739Z,40.50
2023-09-17T08:58:13.125Z,40.67
2023-09-17T09:00:41.300Z,40.69
2023-09-17T09:03:09.360Z,40.42
2023-09-17T09:05:37.093Z,40.20
2023-09-17T09:08:05.993Z,40.33
2023-09-17T09:10:33.719Z,40.37
2023-09-17T09:13:01.480Z,40.09
2023-09-17T09:15:29.436Z,40.00
2023-09-17T09:17:57.138Z,39.49
2023-09-17T09:20:24.858Z,39.21
2023-09-17T09:22:52.463Z,39.41
2023-09-17T09:25:20.337Z,39.69
2023-09-17T09:27:47.952Z,39.85
2023-09-17T09:30:16.565Z,39.89
2023-09-17T09:32:45.224Z,39.11
2023-09-17T09:35:13.013Z,38.70
2023-09-17T09:37:40.768Z,38.63
2023-09-17T09:40:09.506Z,38.59
2023-09-17T09:42:37.016Z,38.89
2023-09-17T09:45:04.971Z,39.37
2023-09-17T09:47:33.232Z,39.20
2023-09-17T09:50:02.662Z,39.11
2023-09-17T09:52:30.549Z,38.86
2023-09-17T09:54:58.827Z,39.11
2023-09-17T09:57:27.077Z,39.15
2023-09-17T09:59:54.990Z,39.05
2023-09-17T10:02:22.724Z,38.76
2023-09-17T10:04:50.758Z,38.50
2023-09-17T10:07:18.589Z,38.47
2023-09-17T10:09:47.419Z,38.20
2023-09-17T10:12:15.837Z,38.13
2023-09-17T10:14:44.070Z,38.25
2023-09-17T10:17:12.411Z,38.46
2023-09-17T10:19:40.530Z,38.59
2023-09-17T10:22:09.653Z,39.01
2023-09-17T10:24:37.815Z,39.17
2023-09-17T10:27:06.887Z,39.33
2023-09-17T10:29:35.883Z,39.60
2023-09-17T10:32:04.578Z,39.81
2023-09-17T10:34:34.420Z,39.84
2023-09-17T10:37:05.686Z,40.10
2023-09-17T10:39:34.832Z,40.10
2023-09-17T10:42:04.204Z,40.04
2023-09-17T10:44:32.525Z,39.77
2023-09-17T10:47:02.154Z,39.92
2023-09-17T10:49:31.715Z,39.98
2023-09-17T10:52:00.162Z,40.12
2023-09-17T10:54:30.512Z,40.08
2023-09-17T10:56:58.199Z,40.26
2023-09-17T10:59:25.752Z,40.38
2023-09-17T11:01:53.465Z,40.20
2023-09-17T11:04:23.101Z,39.87
2023-09-17T11:06:51.133Z,40.18
2023-09-17T11:09:18.827Z,40.42
2023-09-17T11:11:46.547Z,40.33
2023-09-17T11:14:15.542Z,40.28
2023-09-17T11:16:43.775Z,40.31
2023-09-17T11:19:13.227Z,40.57
2023-09-17T11:21:42.726Z,40.49
2023-09-17T11:24:14.322Z,40.50
2023-09-17T11:26:42.827Z,40.59
2023-09-17T11:29:10.758Z,40.73
2023-09-17T11:31:53.899Z,40.32
2023-09-17T11:34:24.586Z,40.05
2023-09-17T11:36:53.508Z,40.20
2023-09-17T11:39:24.135Z,40.40
2023-09-17T11:42:20.604Z,39.91
2023-09-17T11:44:48.263Z,39.64
2023-09-17T11:47:15.963Z,39.40
2023-09-17T11:49:43.726Z,39.56
2023-09-17T11:52:11.673Z,39.25
2023-09-17T11:54:52.424Z,39.16
2023-09-17T11:57:26.931Z,39.01
2023-09-17T11:59:58.212Z,38.86
2023-09-17T12:02:26.087Z,38.61
2023-09-17T12:04:54.563Z,38.64
2023-09-17T12:07:22.271Z,38.88
2023-09-17T12:10:00.458Z,38.99
2023-09-17T12:12:29.585Z,38.91
2023-09-17T12:14:57.156Z,38.68
2023-09-17T12:17:25.803Z,38.40
2023-09-17T12:20:51.334Z,38.23
2023-09-17T12:23:40.725Z,38.35
2023-09-17T12:27:07.668Z,38.38
2023-09-17T12:29:45.901Z,38.48
2023-09-17T12:32:13.926Z,38.64
2023-09-17T12:34:42.546Z,37.61
2023-09-17T12:37:13.182Z,36.37
2023-09-17T12:39:44.889Z,35.61
2023-09-17T12:42:12.420Z,35.36
2023-09-17T12:44:40.149Z,35.27
2023-09-17T12:47:08.106Z,35.61
2023-09-17T12:49:41.168Z,35.73
2023-09-17T12:52:08.993Z,35.39
2023-09-17T12:54:36.775Z,35.49
2023-09-17T12:57:04.872Z,35.49
2023-09-17T12:59:39.205Z,35.81
2023-09-17T13:02:07.912Z,36.27
2023-09-17T13:04:40.418Z,36.08
2023-09-17T13:07:19.289Z,36.05
2023-09-17T13:09:47.407Z,36.26
2023-09-17T13:12:24.475Z,36.60
2023-09-17T13:14:53.382Z,36.71
2023-09-17T13:17:21.849Z,36.84
2023-09-17T13:19:50.119Z,36.93
2023-09-17T13:22:18.616Z,36.80
2023-09-17T13:24:46.567Z,36.84
2023-09-17T13:27:22.786Z,37.06
2023-09-17T13:29:56.562Z,37.16
2023-09-17T13:32:24.141Z,36.95
2023-09-17T13:34:51.935Z,36.93
2023-09-17T13:37:19.621Z,36.84
2023-09-17T13:39:50.963Z,37.03
2023-09-17T13:42:18.877Z,37.17
2023-09-17T13:44:46.444Z,37.23
2023-09-17T13:47:14.087Z,37.58
2023-09-17T13:49:44.212Z,37.49
2023-09-17T13:52:11.992Z,37.63
2023-09-17T13:54:44.040Z,37.76
2023-09-17T13:57:11.705Z,37.27
2023-09-17T14:00:23.112Z,37.39
2023-09-17T14:02:50.925Z,37.60
2023-09-17T14:05:18.652Z,37.50
2023-09-17T14:07:46.322Z,37.52
2023-09-17T14:10:13.918Z,37.47
2023-09-17T14:12:41.413Z,37.60
2023-09-17T14:15:09.243Z,37.74
2023-09-17T14:17:36.972Z,38.18
2023-09-17T14:20:05.319Z,38.16
2023-09-17T14:22:32.844Z,37.91
2023-09-17T14:25:00.453Z,37.83
2023-09-17T14:27:28.393Z,37.69
2023-09-17T14:29:56.007Z,37.71
2023-09-17T14:32:25.955Z,37.84
2023-09-17T14:34:55.771Z,37.63
2023-09-17T14:37:25.559Z,37.73
2023-09-17T14:39:53.285Z,37.71
2023-09-17T14:42:22.715Z,37.76
2023-09-17T14:44:50.224Z,37.88
2023-09-17T14:47:17.933Z,37.77
2023-09-17T14:49:45.753Z,37.66
2023-09-17T14:52:13.426Z,37.72
2023-09-17T14:54:41.227Z,37.85
2023-09-17T14:57:08.826Z,37.98
2023-09-17T14:59:36.405Z,38.10
2023-09-17T15:02:05.122Z,38.09
2023-09-17T15:04:32.921Z,38.21
2023-09-17T15:07:00.842Z,38.43
2023-09-17T15:09:28.766Z,38.48
2023-09-17T15:11:56.688Z,38.62
2023-09-17T15:14:24.485Z,38.91
2023-09-17T15:16:52.268Z,38.72
2023-09-17T15:19:19.798Z,38.80
2023-09-17T15:21:47.425Z,38.80
2023-09-17T15:24:15.058Z,38.54
2023-09-17T15:26:44.429Z,38.71
2023-09-17T15:29:13.247Z,38.91
2023-09-17T15:31:40.963Z,39.10
2023-09-17T15:34:09.239Z,38.97
2023-09-17T15:36:40.019Z,38.98
2023-09-17T15:39:07.773Z,39.25
2023-09-17T15:41:35.264Z,39.17
2023-09-17T15:44:02.872Z,39.28
2023-09-17T15:46:30.449Z,39.33
2023-09-17T15:48:58.060Z,39.61
2023-09-17T15:51:25.711Z,39.51
2023-09-17T15:53:53.224Z,39.65
2023-09-17T15:56:20.777Z,39.73
2023-09-17T15:58:48.359Z,39.95
2023-09-17T16:01:16.042Z,40.09
2023-09-17T16:03:43.656Z,40.02
2023-09-17T16:06:11.515Z,40.13
2023-09-17T16:08:39.113Z,40.24
2023-09-17T16:11:06.679Z,40.29
2023-09-17T16:13:34.296Z,40.37
2023-09-17T16:16:01.817Z,40.46
2023-09-17T16:18:29.424Z,40.64
2023-09-17T16:20:56.968Z,40.73
2023-09-17T16:23:24.740Z,40.89
2023-09-17T16:25:52.572Z,41.05
2023-09-17T16:28:20.532Z,41.24
2023-09-17T16:30:48.413Z,41.36
2023-09-17T16:33:16.280Z,41.50
2023-09-17T16:35:45.033Z,41.55
2023-09-17T16:38:12.596Z,41.60
2023-09-17T16:40:40.957Z,41.74
2023-09-17T16:43:10.944Z,41.88
2023-09-17T16:45:39.376Z,41.91
2023-09-17T16:48:07.041Z,41.89
2023-09-17T16:50:34.774Z,41.94
2023-09-17T16:53:02.331Z,41.94
2023-09-17T16:55:29.978Z,41.95
2023-09-17T16:57:57.497Z,42.03
2023-09-17T17:00:25.384Z,42.15
2023-09-17T17:02:53.416Z,42.13
2023-09-17T17:05:21.216Z,42.10
2023-09-17T17:07:49.025Z,42.26
2023-09-17T17:10:16.715Z,42.28
2023-09-17T17:12:44.859Z,42.29
2023-09-17T17:15:12.481Z,42.36
2023-09-17T17:17:40.185Z,42.28
2023-09-17T17:20:08.546Z,42.29
2023-09-17T17:22:47.035Z,42.22
2023-09-17T17:25:14.893Z,42.44
2023-09-17T17:27:43.915Z,42.39
2023-09-17T17:30:11.857Z,42.51
2023-09-17T17:32:42.003Z,42.52
2023-09-17T17:35:10.335Z,42.62
2023-09-17T17:37:39.568Z,42.75
2023-09-17T17:40:09.428Z,42.71
2023-09-17T17:42:37.175Z,42.92
2023-09-17T17:45:05.546Z,42.98
2023-09-17T17:47:35.318Z,43.08
2023-09-17T17:50:03.988Z,43.08
2023-09-17T17:52:31.561Z,43.20
2023-09-17T17:54:59.140Z,43.37
2023-09-17T17:57:28.210Z,43.58
2023-09-17T17:59:55.764Z,43.66
2023-09-17T18:02:23.531Z,43.80
2023-09-17T18:04:51.419Z,43.88
2023-09-17T18:07:19.073Z,44.10
2023-09-17T18:09:46.835Z,44.29
2023-09-17T18:12:14.344Z,44.39
2023-09-17T18:14:41.915Z,44.60
2023-09-17T18:17:09.588Z,44.73
2023-09-17T18:19:37.377Z,44.88
2023-09-17T18:22:05.173Z,45.04
2023-09-17T18:24:32.854Z,45.02
2023-09-17T18:27:00.638Z,45.07
2023-09-17T18:29:28.956Z,45.17
2023-09-17T18:31:57.556Z,45.36
2023-09-17T18:34:25.347Z,45.39
2023-09-17T18:36:55.372Z,45.43
2023-09-17T18:39:25.464Z,45.46
2023-09-17T18:41:53.098Z,45.57
2023-09-17T18:44:21.126Z,45.63
2023-09-17T18:46:49.350Z,45.73
2023-09-17T18:49:19.850Z,45.54
2023-09-17T18:51:50.537Z,45.66
2023-09-17T18:54:20.228Z,45.67
2023-09-17T18:56:47.831Z,45.82
2023-09-17T18:59:16.703Z,45.84
2023-09-17T19:01:44.338Z,45.81
2023-09-17T19:04:11.983Z,45.82
2023-09-17T19:06:39.532Z,45.72
2023-09-17T19:09:07.428Z,45.66
2023-09-17T19:11:35.314Z,45.68
2023-09-17T19:14:03.185Z,45.73
2023-09-17T19:16:31.259Z,45.68
2023-09-17T19:18:59.055Z,45.71
2023-09-17T19:21:26.667Z,45.76
2023-09-17T19:23:55.228Z,45.78
2023-09-17T19:26:23.230Z,45.85
2023-09-17T19:28:51.393Z,45.88
2023-09-17T19:31:19.101Z,45.81
2023-09-17T19:33:47.482Z,45.81
2023-09-17T19:36:15.070Z,45.76
2023-09-17T19:38:42.724Z,45.79
2023-09-17T19:41:10.351Z,45.82
2023-09-17T19:43:38.947Z,45.66
2023-09-17T19:46:06.661Z,45.65
2023-09-17T19:48:34.505Z,45.72
2023-09-17T19:51:02.241Z,45.74
2023-09-17T19:53:30.482Z,45.70
2023-09-17T19:55:58.037Z,45.80
2023-09-17T19:58:26.349Z,45.80
2023-09-17T20:00:54.575Z,45.70
2023-09-17T20:03:25.208Z,45.74
2023-09-17T20:05:53.199Z,45.65
2023-09-17T20:08:20.734Z,45.58
2023-09-17T20:10:48.320Z,45.55
2023-09-17T20:13:16.663Z,45.53
2023-09-17T20:15:48.955Z,45.54
2023-09-17T20:18:16.703Z,45.53
2023-09-17T20:20:47.704Z,45.55
2023-09-17T20:23:15.587Z,45.49
2023-09-17T20:25:43.341Z,45.61
2023-09-17T20:28:12.219Z,45.54
2023-09-17T20:30:40.553Z,45.72
2023-09-17T20:33:09.251Z,45.72
2023-09-17T20:35:40.870Z,45.62
2023-09-17T20:38:08.819Z,45.55
2023-09-17T20:40:36.353Z,45.50
2023-09-17T20:43:03.942Z,45.56
2023-09-17T20:45:31.483Z,45.71
2023-09-17T20:47:59.141Z,45.68
2023-09-17T20:50:27.779Z,45.61
2023-09-17T20:52:55.825Z,45.66
2023-09-17T20:55:27.784Z,45.71
2023-09-17T20:57:55.935Z,45.99
2023-09-17T21:00:24.307Z,45.98
2023-09-17T21:02:52.033Z,45.96
2023-09-17T21:05:19.791Z,46.00
2023-09-17T21:07:47.389Z,46.00
2023-09-17T21:10:14.955Z,46.06
2023-09-17T21:12:42.455Z,46.15
2023-09-17T21:15:32.728Z,46.12
2023-09-17T21:18:00.617Z,46.10
2023-09-17T21:20:28.290Z,46.34
2023-09-17T21:22:55.850Z,46.28
2023-09-17T21:25:23.435Z,46.31
2023-09-17T21:27:50.935Z,46.36
2023-09-17T21:30:18.630Z,46.36
2023-09-17T21:32:46.591Z,46.49
2023-09-17T21:35:14.628Z,46.33
2023-09-17T21:37:42.472Z,46.09
2023-09-17T21:40:10.992Z,45.96
2023-09-17T21:42:39.212Z,46.04
2023-09-17T21:45:07.218Z,45.94
2023-09-17T21:47:34.848Z,46.08
2023-09-17T21:50:03.369Z,45.96
2023-09-17T21:52:31.000Z,46.03
2023-09-17T21:54:58.856Z,46.16
2023-09-17T21:57:26.748Z,46.11
2023-09-17T21:59:54.320Z,46.07
2023-09-17T22:02:21.993Z,46.06
2023-09-17T22:04:49.780Z,46.08
2023-09-17T22:07:18.808Z,46.13
2023-09-17T22:09:46.317Z,46.12
2023-09-17T22:12:15.927Z,46.14
2023-09-17T22:14:43.468Z,46.12
2023-09-17T22:17:12.148Z,46.16
2023-09-17T22:19:41.983Z,46.23
2023-09-17T22:22:10.137Z,46.24
2023-09-17T22:24:38.092Z,46.33
2023-09-17T22:27:05.620Z,46.44
2023-09-17T22:29:33.373Z,46.43
2023-09-17T22:32:00.991Z,46.55
2023-09-17T22:34:28.516Z,46.50
2023-09-17T22:36:56.167Z,46.49
2023-09-17T22:39:23.718Z,46.53
2023-09-17T22:41:51.251Z,46.59
2023-09-17T22:44:24.498Z,46.74
2023-09-17T22:46:53.024Z,46.74
2023-09-17T22:49:20.945Z,46.75
2023-09-17T22:51:48.481Z,46.75
2023-09-17T22:54:16.023Z,46.72
2023-09-17T22:56:43.576Z,46.76
2023-09-17T22:59:11.248Z,46.87
2023-09-17T23:01:40.238Z,46.94
2023-09-17T23:04:08.669Z,46.93
2023-09-17T23:06:36.721Z,46.93
2023-09-17T23:09:05.307Z,47.08
2023-09-17T23:11:33.011Z,47.05
2023-09-17T23:14:06.844Z,47.07
2023-09-17T23:16:37.859Z,47.09
2023-09-17T23:19:08.575Z,47.16
2023-09-17T23:21:36.672Z,47.22
2023-09-17T23:24:05.012Z,47.23
2023-09-17T23:26:32.886Z,47.22
2023-09-17T23:29:01.121Z,47.23
2023-09-17T23:31:28.740Z,47.34
2023-09-17T23:33:57.781Z,47.36
2023-09-17T23:36:25.550Z,47.42
2023-09-17T23:38:53.836Z,47.52
2023-09-17T23:41:21.930Z,47.50
2023-09-17T23:43:49.586Z,47.53
2023-09-17T23:46:17.219Z,47.54
2023-09-17T23:48:44.918Z,47.58
2023-09-17T23:51:12.410Z,47.59
2023-09-17T23:53:39.951Z,47.56
2023-09-17T23:56:07.560Z,47.58
2023-09-17T23:58:35.157Z,47.57
